sensor_id;sensor_type;location;lat;lon;timestamp;P1;durP1;ratioP1;P2;durP2;ratioP2
2992;SDS011;1506;48.932;9.478;2022-12-10T00:01:39;37.43;;;20.30;;
2992;SDS011;1506;48.932;9.478;2022-12-10T00:04:07;34.13;;;18.30;;
2992;SDS011;1506;48.932;9.478;2022-12-10T00:06:37;38.47;;;18.43;;
2992;SDS011;1506;48.932;9.478;2022-12-10T00:09:06;41.70;;;18.80;;
2992;SDS011;1506;48.932;9.478;2022-12-10T00:11:38;32.60;;;17.77;;
2992;SDS011;1506;48.932;9.478;2022-12-10T00:14:06;35.47;;;18.20;;
2992;SDS011;1506;48.932;9.478;2022-12-10T00:16:33;47.93;;;20.17;;
2992;SDS011;1506;48.932;9.478;2022-12-10T00:19:01;32.07;;;18.37;;
2992;SDS011;1506;48.932;9.478;2022-12-10T00:21:31;40.80;;;19.63;;
2992;SDS011;1506;48.932;9.478;2022-12-10T00:24:00;31.47;;;19.07;;
2992;SDS011;1506;48.932;9.478;2022-12-10T00:26:29;34.53;;;17.83;;
2992;SDS011;1506;48.932;9.478;2022-12-10T00:29:00;42.93;;;18.40;;
2992;SDS011;1506;48.932;9.478;2022-12-10T00:31:30;27.53;;;16.10;;
2992;SDS011;1506;48.932;9.478;2022-12-10T00:34:02;33.53;;;17.10;;
2992;SDS011;1506;48.932;9.478;2022-12-10T00:36:34;29.00;;;16.47;;
2992;SDS011;1506;48.932;9.478;2022-12-10T00:39:04;36.30;;;17.87;;
2992;SDS011;1506;48.932;9.478;2022-12-10T00:41:32;40.03;;;19.60;;
2992;SDS011;1506;48.932;9.478;2022-12-10T00:44:00;37.43;;;17.37;;
2992;SDS011;1506;48.932;9.478;2022-12-10T00:46:27;32.77;;;19.17;;
2992;SDS011;1506;48.932;9.478;2022-12-10T00:48:55;32.87;;;17.70;;
2992;SDS011;1506;48.932;9.478;2022-12-10T00:51:23;32.83;;;19.80;;
2992;SDS011;1506;48.932;9.478;2022-12-10T00:53:52;35.63;;;17.60;;
2992;SDS011;1506;48.932;9.478;2022-12-10T00:56:24;45.30;;;20.70;;
2992;SDS011;1506;48.932;9.478;2022-12-10T00:58:57;40.50;;;18.57;;
2992;SDS011;1506;48.932;9.478;2022-12-10T01:01:35;35.33;;;17.07;;
2992;SDS011;1506;48.932;9.478;2022-12-10T01:04:07;39.63;;;17.70;;
2992;SDS011;1506;48.932;9.478;2022-12-10T01:09:18;30.00;;;16.60;;
2992;SDS011;1506;48.932;9.478;2022-12-10T01:11:52;34.20;;;16.07;;
2992;SDS011;1506;48.932;9.478;2022-12-10T01:14:25;37.40;;;17.30;;
2992;SDS011;1506;48.932;9.478;2022-12-10T01:16:56;33.70;;;18.33;;
2992;SDS011;1506;48.932;9.478;2022-12-10T01:19:29;45.37;;;18.17;;
2992;SDS011;1506;48.932;9.478;2022-12-10T01:22:00;33.00;;;16.70;;
2992;SDS011;1506;48.932;9.478;2022-12-10T01:24:30;33.37;;;17.13;;
2992;SDS011;1506;48.932;9.478;2022-12-10T01:26:57;34.10;;;17.40;;
2992;SDS011;1506;48.932;9.478;2022-12-10T01:29:26;35.93;;;16.57;;
2992;SDS011;1506;48.932;9.478;2022-12-10T01:31:54;38.33;;;19.53;;
2992;SDS011;1506;48.932;9.478;2022-12-10T01:34:23;29.60;;;16.57;;
2992;SDS011;1506;48.932;9.478;2022-12-10T01:36:54;34.00;;;17.90;;
2992;SDS011;1506;48.932;9.478;2022-12-10T01:39:22;40.10;;;17.83;;
2992;SDS011;1506;48.932;9.478;2022-12-10T01:41:51;41.43;;;19.57;;
2992;SDS011;1506;48.932;9.478;2022-12-10T01:46:49;36.60;;;17.20;;
2992;SDS011;1506;48.932;9.478;2022-12-10T01:51:55;39.27;;;17.17;;
2992;SDS011;1506;48.932;9.478;2022-12-10T01:54:30;27.23;;;16.63;;
2992;SDS011;1506;48.932;9.478;2022-12-10T01:57:01;35.73;;;19.77;;
2992;SDS011;1506;48.932;9.478;2022-12-10T01:59:31;31.17;;;17.90;;
2992;SDS011;1506;48.932;9.478;2022-12-10T02:08:16;30.30;;;17.10;;
2992;SDS011;1506;48.932;9.478;2022-12-10T02:14:14;44.73;;;20.27;;
2992;SDS011;1506;48.932;9.478;2022-12-10T02:19:00;31.17;;;16.37;;
2992;SDS011;1506;48.932;9.478;2022-12-10T02:21:45;25.77;;;16.03;;
2992;SDS011;1506;48.932;9.478;2022-12-10T02:24:16;28.87;;;15.77;;
2992;SDS011;1506;48.932;9.478;2022-12-10T02:26:56;37.37;;;17.50;;
2992;SDS011;1506;48.932;9.478;2022-12-10T02:29:38;43.37;;;18.63;;
2992;SDS011;1506;48.932;9.478;2022-12-10T02:32:11;31.73;;;16.47;;
2992;SDS011;1506;48.932;9.478;2022-12-10T02:34:44;37.30;;;18.33;;
2992;SDS011;1506;48.932;9.478;2022-12-10T02:37:36;31.90;;;18.73;;
2992;SDS011;1506;48.932;9.478;2022-12-10T02:40:15;36.40;;;17.67;;
2992;SDS011;1506;48.932;9.478;2022-12-10T02:42:50;41.57;;;20.37;;
2992;SDS011;1506;48.932;9.478;2022-12-10T02:45:20;31.30;;;16.37;;
2992;SDS011;1506;48.932;9.478;2022-12-10T02:47:51;33.67;;;17.13;;
2992;SDS011;1506;48.932;9.478;2022-12-10T02:50:25;31.07;;;16.40;;
2992;SDS011;1506;48.932;9.478;2022-12-10T02:52:53;44.37;;;19.57;;
2992;SDS011;1506;48.932;9.478;2022-12-10T02:55:20;38.77;;;19.50;;
2992;SDS011;1506;48.932;9.478;2022-12-10T03:00:50;43.17;;;22.50;;
2992;SDS011;1506;48.932;9.478;2022-12-10T03:03:43;44.93;;;20.80;;
2992;SDS011;1506;48.932;9.478;2022-12-10T03:06:25;44.50;;;19.20;;
2992;SDS011;1506;48.932;9.478;2022-12-10T03:09:06;45.37;;;20.20;;
2992;SDS011;1506;48.932;9.478;2022-12-10T03:11:42;33.47;;;17.70;;
2992;SDS011;1506;48.932;9.478;2022-12-10T03:16:56;40.50;;;19.83;;
2992;SDS011;1506;48.932;9.478;2022-12-10T03:19:28;39.20;;;18.87;;
2992;SDS011;1506;48.932;9.478;2022-12-10T03:22:07;36.63;;;18.20;;
2992;SDS011;1506;48.932;9.478;2022-12-10T03:24:38;41.80;;;19.90;;
2992;SDS011;1506;48.932;9.478;2022-12-10T03:27:08;32.90;;;16.37;;
2992;SDS011;1506;48.932;9.478;2022-12-10T03:29:44;34.97;;;18.77;;
2992;SDS011;1506;48.932;9.478;2022-12-10T03:32:24;29.30;;;17.37;;
2992;SDS011;1506;48.932;9.478;2022-12-10T03:34:54;34.73;;;18.33;;
2992;SDS011;1506;48.932;9.478;2022-12-10T03:37:24;36.77;;;18.30;;
2992;SDS011;1506;48.932;9.478;2022-12-10T03:39:53;32.47;;;18.17;;
2992;SDS011;1506;48.932;9.478;2022-12-10T03:42:22;34.20;;;18.20;;
2992;SDS011;1506;48.932;9.478;2022-12-10T03:44:50;32.70;;;17.60;;
2992;SDS011;1506;48.932;9.478;2022-12-10T03:47:18;35.77;;;17.80;;
2992;SDS011;1506;48.932;9.478;2022-12-10T03:49:45;30.37;;;17.07;;
2992;SDS011;1506;48.932;9.478;2022-12-10T03:52:12;31.93;;;17.83;;
2992;SDS011;1506;48.932;9.478;2022-12-10T03:54:40;36.77;;;18.50;;
2992;SDS011;1506;48.932;9.478;2022-12-10T03:57:07;33.57;;;17.37;;
2992;SDS011;1506;48.932;9.478;2022-12-10T03:59:34;30.90;;;17.40;;
2992;SDS011;1506;48.932;9.478;2022-12-10T04:02:01;38.80;;;20.47;;
2992;SDS011;1506;48.932;9.478;2022-12-10T04:04:29;34.23;;;17.07;;
2992;SDS011;1506;48.932;9.478;2022-12-10T04:06:56;34.30;;;16.60;;
2992;SDS011;1506;48.932;9.478;2022-12-10T04:09:23;40.17;;;19.70;;
2992;SDS011;1506;48.932;9.478;2022-12-10T04:11:54;31.87;;;18.03;;
2992;SDS011;1506;48.932;9.478;2022-12-10T04:14:25;38.53;;;19.30;;
2992;SDS011;1506;48.932;9.478;2022-12-10T04:17:12;32.07;;;17.70;;
2992;SDS011;1506;48.932;9.478;2022-12-10T04:19:39;36.80;;;18.97;;
2992;SDS011;1506;48.932;9.478;2022-12-10T04:22:10;28.40;;;16.30;;
2992;SDS011;1506;48.932;9.478;2022-12-10T04:24:56;38.17;;;18.67;;
2992;SDS011;1506;48.932;9.478;2022-12-10T04:27:41;32.47;;;16.00;;
2992;SDS011;1506;48.932;9.478;2022-12-10T04:30:09;39.47;;;18.87;;
2992;SDS011;1506;48.932;9.478;2022-12-10T04:32:38;38.30;;;17.53;;
2992;SDS011;1506;48.932;9.478;2022-12-10T04:35:05;34.13;;;16.60;;
2992;SDS011;1506;48.932;9.478;2022-12-10T04:37:33;28.77;;;16.47;;
2992;SDS011;1506;48.932;9.478;2022-12-10T04:40:00;26.30;;;15.90;;
2992;SDS011;1506;48.932;9.478;2022-12-10T04:42:27;29.17;;;16.10;;
2992;SDS011;1506;48.932;9.478;2022-12-10T04:44:54;27.97;;;15.90;;
2992;SDS011;1506;48.932;9.478;2022-12-10T04:47:21;35.97;;;17.70;;
2992;SDS011;1506;48.932;9.478;2022-12-10T04:49:49;33.30;;;16.50;;
2992;SDS011;1506;48.932;9.478;2022-12-10T04:52:16;22.53;;;15.60;;
2992;SDS011;1506;48.932;9.478;2022-12-10T04:54:43;28.87;;;17.03;;
2992;SDS011;1506;48.932;9.478;2022-12-10T04:57:11;32.23;;;17.83;;
2992;SDS011;1506;48.932;9.478;2022-12-10T04:59:38;31.33;;;15.80;;
2992;SDS011;1506;48.932;9.478;2022-12-10T05:02:05;30.57;;;15.83;;
2992;SDS011;1506;48.932;9.478;2022-12-10T05:04:33;28.80;;;15.37;;
2992;SDS011;1506;48.932;9.478;2022-12-10T05:07:00;40.60;;;16.23;;
2992;SDS011;1506;48.932;9.478;2022-12-10T05:09:27;36.43;;;17.73;;
2992;SDS011;1506;48.932;9.478;2022-12-10T05:11:54;40.00;;;16.97;;
2992;SDS011;1506;48.932;9.478;2022-12-10T05:14:21;34.53;;;18.30;;
2992;SDS011;1506;48.932;9.478;2022-12-10T05:16:49;32.37;;;16.33;;
2992;SDS011;1506;48.932;9.478;2022-12-10T05:19:18;39.13;;;17.47;;
2992;SDS011;1506;48.932;9.478;2022-12-10T05:21:46;36.80;;;18.40;;
2992;SDS011;1506;48.932;9.478;2022-12-10T05:24:31;37.17;;;17.50;;
2992;SDS011;1506;48.932;9.478;2022-12-10T05:26:59;36.57;;;16.47;;
2992;SDS011;1506;48.932;9.478;2022-12-10T05:29:26;30.83;;;17.37;;
2992;SDS011;1506;48.932;9.478;2022-12-10T05:31:53;29.33;;;16.27;;
2992;SDS011;1506;48.932;9.478;2022-12-10T05:34:20;33.30;;;18.33;;
2992;SDS011;1506;48.932;9.478;2022-12-10T05:36:47;32.17;;;17.40;;
2992;SDS011;1506;48.932;9.478;2022-12-10T05:39:14;28.80;;;17.83;;
2992;SDS011;1506;48.932;9.478;2022-12-10T05:41:41;49.30;;;17.30;;
2992;SDS011;1506;48.932;9.478;2022-12-10T05:44:10;27.03;;;16.53;;
2992;SDS011;1506;48.932;9.478;2022-12-10T05:46:37;34.00;;;18.60;;
2992;SDS011;1506;48.932;9.478;2022-12-10T05:49:05;41.37;;;17.17;;
2992;SDS011;1506;48.932;9.478;2022-12-10T05:51:34;33.90;;;19.37;;
2992;SDS011;1506;48.932;9.478;2022-12-10T05:54:04;34.37;;;17.83;;
2992;SDS011;1506;48.932;9.478;2022-12-10T05:56:32;37.13;;;19.30;;
2992;SDS011;1506;48.932;9.478;2022-12-10T05:59:01;31.80;;;17.80;;
2992;SDS011;1506;48.932;9.478;2022-12-10T06:01:31;35.80;;;17.30;;
2992;SDS011;1506;48.932;9.478;2022-12-10T06:04:01;36.67;;;19.00;;
2992;SDS011;1506;48.932;9.478;2022-12-10T06:06:31;36.23;;;17.90;;
2992;SDS011;1506;48.932;9.478;2022-12-10T06:09:01;42.47;;;18.53;;
2992;SDS011;1506;48.932;9.478;2022-12-10T06:11:30;25.17;;;17.20;;
2992;SDS011;1506;48.932;9.478;2022-12-10T06:13:57;32.17;;;17.10;;
2992;SDS011;1506;48.932;9.478;2022-12-10T06:16:26;34.13;;;17.17;;
2992;SDS011;1506;48.932;9.478;2022-12-10T06:18:55;36.30;;;18.80;;
2992;SDS011;1506;48.932;9.478;2022-12-10T06:21:22;46.90;;;19.10;;
2992;SDS011;1506;48.932;9.478;2022-12-10T06:23:50;38.43;;;19.13;;
2992;SDS011;1506;48.932;9.478;2022-12-10T06:26:19;32.40;;;18.33;;
2992;SDS011;1506;48.932;9.478;2022-12-10T06:28:50;35.40;;;19.37;;
2992;SDS011;1506;48.932;9.478;2022-12-10T06:31:18;37.77;;;18.60;;
2992;SDS011;1506;48.932;9.478;2022-12-10T06:33:46;43.27;;;18.87;;
2992;SDS011;1506;48.932;9.478;2022-12-10T06:36:13;38.13;;;19.00;;
2992;SDS011;1506;48.932;9.478;2022-12-10T06:38:42;35.10;;;19.30;;
2992;SDS011;1506;48.932;9.478;2022-12-10T06:41:11;49.90;;;18.90;;
2992;SDS011;1506;48.932;9.478;2022-12-10T06:43:40;38.70;;;19.23;;
2992;SDS011;1506;48.932;9.478;2022-12-10T06:46:08;37.30;;;19.40;;
2992;SDS011;1506;48.932;9.478;2022-12-10T06:48:40;44.67;;;21.20;;
2992;SDS011;1506;48.932;9.478;2022-12-10T06:51:08;37.43;;;18.00;;
2992;SDS011;1506;48.932;9.478;2022-12-10T06:53:38;38.87;;;19.00;;
2992;SDS011;1506;48.932;9.478;2022-12-10T06:56:06;41.53;;;19.10;;
2992;SDS011;1506;48.932;9.478;2022-12-10T06:58:35;33.20;;;18.10;;
2992;SDS011;1506;48.932;9.478;2022-12-10T07:01:07;34.73;;;17.87;;
2992;SDS011;1506;48.932;9.478;2022-12-10T07:03:49;38.20;;;19.50;;
2992;SDS011;1506;48.932;9.478;2022-12-10T07:06:18;37.00;;;18.07;;
2992;SDS011;1506;48.932;9.478;2022-12-10T07:08:47;33.40;;;18.57;;
2992;SDS011;1506;48.932;9.478;2022-12-10T07:11:15;35.20;;;18.00;;
2992;SDS011;1506;48.932;9.478;2022-12-10T07:13:45;35.10;;;18.93;;
2992;SDS011;1506;48.932;9.478;2022-12-10T07:16:13;39.83;;;18.43;;
2992;SDS011;1506;48.932;9.478;2022-12-10T07:18:49;27.47;;;19.20;;
2992;SDS011;1506;48.932;9.478;2022-12-10T07:21:19;36.63;;;19.40;;
2992;SDS011;1506;48.932;9.478;2022-12-10T07:23:51;37.03;;;19.90;;
2992;SDS011;1506;48.932;9.478;2022-12-10T07:26:21;39.00;;;22.47;;
2992;SDS011;1506;48.932;9.478;2022-12-10T07:28:48;45.87;;;23.07;;
2992;SDS011;1506;48.932;9.478;2022-12-10T07:31:19;39.40;;;21.47;;
2992;SDS011;1506;48.932;9.478;2022-12-10T07:33:48;38.73;;;20.80;;
2992;SDS011;1506;48.932;9.478;2022-12-10T07:36:17;49.27;;;20.57;;
2992;SDS011;1506;48.932;9.478;2022-12-10T07:38:44;37.57;;;19.40;;
2992;SDS011;1506;48.932;9.478;2022-12-10T07:41:12;37.37;;;19.13;;
2992;SDS011;1506;48.932;9.478;2022-12-10T07:43:41;36.13;;;18.53;;
2992;SDS011;1506;48.932;9.478;2022-12-10T07:46:20;33.90;;;17.47;;
2992;SDS011;1506;48.932;9.478;2022-12-10T07:48:51;35.83;;;18.77;;
2992;SDS011;1506;48.932;9.478;2022-12-10T07:51:19;39.80;;;19.70;;
2992;SDS011;1506;48.932;9.478;2022-12-10T07:53:47;40.37;;;20.03;;
2992;SDS011;1506;48.932;9.478;2022-12-10T07:56:17;38.97;;;19.77;;
2992;SDS011;1506;48.932;9.478;2022-12-10T07:58:44;31.20;;;17.73;;
2992;SDS011;1506;48.932;9.478;2022-12-10T08:01:14;43.83;;;19.77;;
2992;SDS011;1506;48.932;9.478;2022-12-10T08:03:44;37.40;;;19.47;;
2992;SDS011;1506;48.932;9.478;2022-12-10T08:06:15;36.30;;;19.53;;
2992;SDS011;1506;48.932;9.478;2022-12-10T08:08:44;35.33;;;17.70;;
2992;SDS011;1506;48.932;9.478;2022-12-10T08:11:13;32.50;;;19.20;;
2992;SDS011;1506;48.932;9.478;2022-12-10T08:13:42;31.60;;;18.17;;
2992;SDS011;1506;48.932;9.478;2022-12-10T08:16:11;38.27;;;21.77;;
2992;SDS011;1506;48.932;9.478;2022-12-10T08:18:41;43.40;;;22.90;;
2992;SDS011;1506;48.932;9.478;2022-12-10T08:21:13;45.57;;;21.77;;
2992;SDS011;1506;48.932;9.478;2022-12-10T08:23:43;46.90;;;22.80;;
2992;SDS011;1506;48.932;9.478;2022-12-10T08:26:12;41.27;;;21.40;;
2992;SDS011;1506;48.932;9.478;2022-12-10T08:28:43;39.37;;;19.60;;
2992;SDS011;1506;48.932;9.478;2022-12-10T08:31:11;34.90;;;18.77;;
2992;SDS011;1506;48.932;9.478;2022-12-10T08:33:40;34.40;;;19.50;;
2992;SDS011;1506;48.932;9.478;2022-12-10T08:36:08;35.13;;;18.07;;
2992;SDS011;1506;48.932;9.478;2022-12-10T08:38:38;36.83;;;17.07;;
2992;SDS011;1506;48.932;9.478;2022-12-10T08:41:07;39.17;;;20.43;;
2992;SDS011;1506;48.932;9.478;2022-12-10T08:43:37;38.27;;;19.97;;
2992;SDS011;1506;48.932;9.478;2022-12-10T08:46:05;32.47;;;18.00;;
2992;SDS011;1506;48.932;9.478;2022-12-10T08:48:33;33.00;;;19.23;;
2992;SDS011;1506;48.932;9.478;2022-12-10T08:51:02;36.50;;;19.90;;
2992;SDS011;1506;48.932;9.478;2022-12-10T08:53:30;43.10;;;20.07;;
2992;SDS011;1506;48.932;9.478;2022-12-10T08:55:58;33.50;;;18.90;;
2992;SDS011;1506;48.932;9.478;2022-12-10T08:58:25;34.93;;;19.33;;
2992;SDS011;1506;48.932;9.478;2022-12-10T09:00:52;37.00;;;20.83;;
2992;SDS011;1506;48.932;9.478;2022-12-10T09:03:19;46.97;;;22.07;;
2992;SDS011;1506;48.932;9.478;2022-12-10T09:05:46;43.07;;;20.57;;
2992;SDS011;1506;48.932;9.478;2022-12-10T09:08:13;38.20;;;20.10;;
2992;SDS011;1506;48.932;9.478;2022-12-10T09:10:41;36.37;;;20.03;;
2992;SDS011;1506;48.932;9.478;2022-12-10T09:13:08;41.23;;;20.70;;
2992;SDS011;1506;48.932;9.478;2022-12-10T09:15:36;39.27;;;21.40;;
2992;SDS011;1506;48.932;9.478;2022-12-10T09:18:03;34.23;;;18.67;;
2992;SDS011;1506;48.932;9.478;2022-12-10T09:20:30;43.13;;;18.50;;
2992;SDS011;1506;48.932;9.478;2022-12-10T09:22:57;47.07;;;19.80;;
2992;SDS011;1506;48.932;9.478;2022-12-10T09:25:24;36.10;;;21.33;;
2992;SDS011;1506;48.932;9.478;2022-12-10T09:27:51;34.13;;;19.13;;
2992;SDS011;1506;48.932;9.478;2022-12-10T09:30:18;41.20;;;20.60;;
2992;SDS011;1506;48.932;9.478;2022-12-10T09:32:45;40.80;;;18.80;;
2992;SDS011;1506;48.932;9.478;2022-12-10T09:35:12;29.03;;;17.73;;
2992;SDS011;1506;48.932;9.478;2022-12-10T09:37:39;32.07;;;18.00;;
2992;SDS011;1506;48.932;9.478;2022-12-10T09:40:06;42.37;;;17.90;;
2992;SDS011;1506;48.932;9.478;2022-12-10T09:42:51;35.63;;;19.93;;
2992;SDS011;1506;48.932;9.478;2022-12-10T09:45:43;33.57;;;19.00;;
2992;SDS011;1506;48.932;9.478;2022-12-10T09:48:50;40.07;;;17.13;;
2992;SDS011;1506;48.932;9.478;2022-12-10T09:51:40;35.83;;;18.67;;
2992;SDS011;1506;48.932;9.478;2022-12-10T09:54:22;29.90;;;17.90;;
2992;SDS011;1506;48.932;9.478;2022-12-10T09:56:54;38.13;;;19.07;;
2992;SDS011;1506;48.932;9.478;2022-12-10T09:59:25;30.33;;;18.00;;
2992;SDS011;1506;48.932;9.478;2022-12-10T10:02:11;31.60;;;17.30;;
2992;SDS011;1506;48.932;9.478;2022-12-10T10:04:51;28.47;;;16.27;;
2992;SDS011;1506;48.932;9.478;2022-12-10T10:07:38;39.63;;;18.47;;
2992;SDS011;1506;48.932;9.478;2022-12-10T10:10:18;32.63;;;16.73;;
2992;SDS011;1506;48.932;9.478;2022-12-10T10:12:48;27.70;;;15.67;;
2992;SDS011;1506;48.932;9.478;2022-12-10T10:15:26;25.70;;;15.30;;
2992;SDS011;1506;48.932;9.478;2022-12-10T10:18:01;31.20;;;16.73;;
2992;SDS011;1506;48.932;9.478;2022-12-10T10:20:58;25.03;;;15.53;;
2992;SDS011;1506;48.932;9.478;2022-12-10T10:23:28;29.30;;;15.60;;
2992;SDS011;1506;48.932;9.478;2022-12-10T10:25:56;30.40;;;17.20;;
2992;SDS011;1506;48.932;9.478;2022-12-10T10:28:23;27.73;;;16.07;;
2992;SDS011;1506;48.932;9.478;2022-12-10T10:30:50;36.23;;;16.90;;
2992;SDS011;1506;48.932;9.478;2022-12-10T10:33:20;42.53;;;19.17;;
2992;SDS011;1506;48.932;9.478;2022-12-10T10:35:48;31.90;;;16.27;;
2992;SDS011;1506;48.932;9.478;2022-12-10T10:38:22;32.30;;;17.90;;
2992;SDS011;1506;48.932;9.478;2022-12-10T10:41:00;27.97;;;15.90;;
2992;SDS011;1506;48.932;9.478;2022-12-10T10:43:40;30.90;;;16.80;;
2992;SDS011;1506;48.932;9.478;2022-12-10T10:48:47;23.67;;;14.90;;
2992;SDS011;1506;48.932;9.478;2022-12-10T10:59:05;25.70;;;15.20;;
2992;SDS011;1506;48.932;9.478;2022-12-10T11:01:47;34.53;;;15.63;;
2992;SDS011;1506;48.932;9.478;2022-12-10T11:04:28;31.97;;;17.13;;
2992;SDS011;1506;48.932;9.478;2022-12-10T11:07:18;25.37;;;15.77;;
2992;SDS011;1506;48.932;9.478;2022-12-10T11:09:52;23.90;;;14.47;;
2992;SDS011;1506;48.932;9.478;2022-12-10T11:14:59;30.53;;;16.63;;
2992;SDS011;1506;48.932;9.478;2022-12-10T11:17:27;38.33;;;19.10;;
2992;SDS011;1506;48.932;9.478;2022-12-10T11:20:02;31.33;;;15.97;;
2992;SDS011;1506;48.932;9.478;2022-12-10T11:22:55;31.70;;;16.30;;
2992;SDS011;1506;48.932;9.478;2022-12-10T11:37:39;22.00;;;14.33;;
2992;SDS011;1506;48.932;9.478;2022-12-10T11:42:55;25.40;;;15.37;;
2992;SDS011;1506;48.932;9.478;2022-12-10T11:49:04;28.57;;;13.50;;
2992;SDS011;1506;48.932;9.478;2022-12-10T12:00:29;26.63;;;15.00;;
2992;SDS011;1506;48.932;9.478;2022-12-10T12:08:58;22.67;;;14.43;;
2992;SDS011;1506;48.932;9.478;2022-12-10T12:14:36;25.70;;;15.33;;
2992;SDS011;1506;48.932;9.478;2022-12-10T12:19:53;28.83;;;15.63;;
2992;SDS011;1506;48.932;9.478;2022-12-10T12:22:33;27.10;;;16.17;;
2992;SDS011;1506;48.932;9.478;2022-12-10T12:25:10;27.33;;;15.17;;
2992;SDS011;1506;48.932;9.478;2022-12-10T12:27:53;31.57;;;15.10;;
2992;SDS011;1506;48.932;9.478;2022-12-10T12:30:47;25.03;;;16.10;;
2992;SDS011;1506;48.932;9.478;2022-12-10T12:33:29;28.00;;;15.67;;
2992;SDS011;1506;48.932;9.478;2022-12-10T12:36:09;28.07;;;16.07;;
2992;SDS011;1506;48.932;9.478;2022-12-10T12:39:04;31.07;;;16.70;;
2992;SDS011;1506;48.932;9.478;2022-12-10T12:45:03;25.37;;;16.43;;
2992;SDS011;1506;48.932;9.478;2022-12-10T12:47:45;41.33;;;16.60;;
2992;SDS011;1506;48.932;9.478;2022-12-10T12:53:09;24.80;;;15.10;;
2992;SDS011;1506;48.932;9.478;2022-12-10T12:55:45;20.40;;;14.00;;
2992;SDS011;1506;48.932;9.478;2022-12-10T12:58:40;27.07;;;15.63;;
2992;SDS011;1506;48.932;9.478;2022-12-10T13:04:02;22.87;;;13.90;;
2992;SDS011;1506;48.932;9.478;2022-12-10T13:06:32;26.07;;;15.97;;
2992;SDS011;1506;48.932;9.478;2022-12-10T13:15:11;30.87;;;13.20;;
2992;SDS011;1506;48.932;9.478;2022-12-10T13:25:42;24.77;;;12.47;;
2992;SDS011;1506;48.932;9.478;2022-12-10T13:31:17;21.40;;;13.87;;
2992;SDS011;1506;48.932;9.478;2022-12-10T13:36:35;21.27;;;15.00;;
2992;SDS011;1506;48.932;9.478;2022-12-10T13:39:29;27.20;;;14.20;;
2992;SDS011;1506;48.932;9.478;2022-12-10T13:47:23;32.63;;;14.10;;
2992;SDS011;1506;48.932;9.478;2022-12-10T13:49:59;35.87;;;12.57;;
2992;SDS011;1506;48.932;9.478;2022-12-10T13:52:44;23.27;;;14.20;;
2992;SDS011;1506;48.932;9.478;2022-12-10T14:01:33;31.67;;;13.50;;
2992;SDS011;1506;48.932;9.478;2022-12-10T14:06:40;23.40;;;15.13;;
2992;SDS011;1506;48.932;9.478;2022-12-10T14:09:21;18.80;;;12.17;;
2992;SDS011;1506;48.932;9.478;2022-12-10T14:11:59;21.57;;;12.67;;
2992;SDS011;1506;48.932;9.478;2022-12-10T14:14:39;15.63;;;11.80;;
2992;SDS011;1506;48.932;9.478;2022-12-10T14:17:13;28.23;;;13.83;;
2992;SDS011;1506;48.932;9.478;2022-12-10T14:19:48;23.13;;;12.70;;
2992;SDS011;1506;48.932;9.478;2022-12-10T14:22:20;19.10;;;11.67;;
2992;SDS011;1506;48.932;9.478;2022-12-10T14:25:01;22.43;;;14.10;;
2992;SDS011;1506;48.932;9.478;2022-12-10T14:27:33;18.80;;;11.33;;
2992;SDS011;1506;48.932;9.478;2022-12-10T14:30:10;28.33;;;14.77;;
2992;SDS011;1506;48.932;9.478;2022-12-10T14:32:48;22.13;;;13.27;;
2992;SDS011;1506;48.932;9.478;2022-12-10T14:35:22;22.43;;;13.63;;
2992;SDS011;1506;48.932;9.478;2022-12-10T14:37:52;24.37;;;13.53;;
2992;SDS011;1506;48.932;9.478;2022-12-10T14:40:23;20.80;;;12.83;;
2992;SDS011;1506;48.932;9.478;2022-12-10T14:42:57;29.20;;;15.03;;
2992;SDS011;1506;48.932;9.478;2022-12-10T14:45:42;29.17;;;16.20;;
2992;SDS011;1506;48.932;9.478;2022-12-10T14:48:14;24.70;;;14.30;;
2992;SDS011;1506;48.932;9.478;2022-12-10T14:50:43;23.23;;;13.97;;
2992;SDS011;1506;48.932;9.478;2022-12-10T14:53:14;22.53;;;14.20;;
2992;SDS011;1506;48.932;9.478;2022-12-10T14:56:01;36.50;;;16.70;;
2992;SDS011;1506;48.932;9.478;2022-12-10T14:58:38;34.53;;;18.73;;
2992;SDS011;1506;48.932;9.478;2022-12-10T15:04:15;32.60;;;15.57;;
2992;SDS011;1506;48.932;9.478;2022-12-10T15:06:52;33.23;;;15.00;;
2992;SDS011;1506;48.932;9.478;2022-12-10T15:09:25;34.53;;;16.13;;
2992;SDS011;1506;48.932;9.478;2022-12-10T15:11:57;22.30;;;13.47;;
2992;SDS011;1506;48.932;9.478;2022-12-10T15:14:26;31.10;;;14.87;;
2992;SDS011;1506;48.932;9.478;2022-12-10T15:16:55;32.90;;;16.37;;
2992;SDS011;1506;48.932;9.478;2022-12-10T15:21:59;23.97;;;14.67;;
2992;SDS011;1506;48.932;9.478;2022-12-10T15:24:40;24.17;;;14.80;;
2992;SDS011;1506;48.932;9.478;2022-12-10T15:29:48;26.30;;;14.50;;
2992;SDS011;1506;48.932;9.478;2022-12-10T15:32:21;26.27;;;13.87;;
2992;SDS011;1506;48.932;9.478;2022-12-10T15:34:54;29.67;;;13.97;;
2992;SDS011;1506;48.932;9.478;2022-12-10T15:37:32;26.93;;;14.17;;
2992;SDS011;1506;48.932;9.478;2022-12-10T15:40:03;27.90;;;16.23;;
2992;SDS011;1506;48.932;9.478;2022-12-10T15:42:38;25.60;;;14.50;;
2992;SDS011;1506;48.932;9.478;2022-12-10T15:48:03;26.23;;;13.70;;
2992;SDS011;1506;48.932;9.478;2022-12-10T15:50:38;33.55;;;16.80;;
2992;SDS011;1506;48.932;9.478;2022-12-10T15:53:11;36.77;;;16.90;;
2992;SDS011;1506;48.932;9.478;2022-12-10T15:55:40;24.53;;;15.90;;
2992;SDS011;1506;48.932;9.478;2022-12-10T15:58:10;29.40;;;16.40;;
2992;SDS011;1506;48.932;9.478;2022-12-10T16:00:39;27.70;;;14.70;;
2992;SDS011;1506;48.932;9.478;2022-12-10T16:03:11;37.60;;;18.27;;
2992;SDS011;1506;48.932;9.478;2022-12-10T16:05:42;37.40;;;17.97;;
2992;SDS011;1506;48.932;9.478;2022-12-10T16:10:44;32.47;;;15.20;;
2992;SDS011;1506;48.932;9.478;2022-12-10T16:13:14;31.50;;;16.33;;
2992;SDS011;1506;48.932;9.478;2022-12-10T16:18:27;32.63;;;16.57;;
2992;SDS011;1506;48.932;9.478;2022-12-10T16:20:59;29.90;;;16.27;;
2992;SDS011;1506;48.932;9.478;2022-12-10T16:23:26;30.27;;;16.93;;
2992;SDS011;1506;48.932;9.478;2022-12-10T16:25:54;34.53;;;18.67;;
2992;SDS011;1506;48.932;9.478;2022-12-10T16:28:22;39.43;;;19.97;;
2992;SDS011;1506;48.932;9.478;2022-12-10T16:30:50;34.23;;;18.23;;
2992;SDS011;1506;48.932;9.478;2022-12-10T16:33:22;36.33;;;17.80;;
2992;SDS011;1506;48.932;9.478;2022-12-10T16:35:51;23.17;;;14.70;;
2992;SDS011;1506;48.932;9.478;2022-12-10T16:38:19;28.17;;;14.83;;
2992;SDS011;1506;48.932;9.478;2022-12-10T16:40:47;29.27;;;16.03;;
2992;SDS011;1506;48.932;9.478;2022-12-10T16:43:16;36.30;;;17.67;;
2992;SDS011;1506;48.932;9.478;2022-12-10T16:45:49;38.97;;;17.37;;
2992;SDS011;1506;48.932;9.478;2022-12-10T16:48:17;26.47;;;16.30;;
2992;SDS011;1506;48.932;9.478;2022-12-10T16:50:45;29.67;;;16.50;;
2992;SDS011;1506;48.932;9.478;2022-12-10T16:53:15;30.57;;;16.40;;
2992;SDS011;1506;48.932;9.478;2022-12-10T16:55:45;36.03;;;16.87;;
2992;SDS011;1506;48.932;9.478;2022-12-10T16:58:13;31.80;;;15.40;;
2992;SDS011;1506;48.932;9.478;2022-12-10T17:00:42;31.10;;;16.03;;
2992;SDS011;1506;48.932;9.478;2022-12-10T17:03:12;31.37;;;16.10;;
2992;SDS011;1506;48.932;9.478;2022-12-10T17:05:52;31.23;;;15.23;;
2992;SDS011;1506;48.932;9.478;2022-12-10T17:08:21;33.67;;;16.53;;
2992;SDS011;1506;48.932;9.478;2022-12-10T17:10:50;29.10;;;15.93;;
2992;SDS011;1506;48.932;9.478;2022-12-10T17:13:37;22.20;;;12.93;;
2992;SDS011;1506;48.932;9.478;2022-12-10T17:16:05;23.17;;;14.00;;
2992;SDS011;1506;48.932;9.478;2022-12-10T17:18:33;26.03;;;15.00;;
2992;SDS011;1506;48.932;9.478;2022-12-10T17:21:01;22.77;;;13.83;;
2992;SDS011;1506;48.932;9.478;2022-12-10T17:23:28;30.03;;;14.63;;
2992;SDS011;1506;48.932;9.478;2022-12-10T17:25:55;30.10;;;14.87;;
2992;SDS011;1506;48.932;9.478;2022-12-10T17:28:23;30.97;;;15.60;;
2992;SDS011;1506;48.932;9.478;2022-12-10T17:30:50;28.47;;;15.40;;
2992;SDS011;1506;48.932;9.478;2022-12-10T17:33:18;26.47;;;13.83;;